Terminal Aerodrome Forecast
Issued by NWS

Home | Current Version | Previous Version | Text Only | Print | Product List | Glossary On
Versions: 1 2 3 4 5 6 7 8 9 10 11 12 13 14 15
000
FTUS43 KGRB 021734
TAFAUW
TAF
KAUW 021734Z 0218/0318 25010G19KT P6SM SCT025 BKN100
      TEMPO 0218/0220 BKN025
     FM022000 29010G18KT P6SM VCTS SCT035CB BKN070
     FM022300 33012G18KT P6SM SCT035
     FM030200 32006KT P6SM SKC=

USA.gov is the U.S. government's official web portal to all federal, state and local government web resources and services.